sensor_id;sensor_type;location;lat;lon;timestamp;P1;durP1;ratioP1;P2;durP2;ratioP2
68947;SDS011;55996;49.546;7.400;2023-12-28T00:02:21;11.63;;;7.63;;
68947;SDS011;55996;49.546;7.400;2023-12-28T00:04:47;8.97;;;6.70;;
68947;SDS011;55996;49.546;7.400;2023-12-28T00:07:12;11.07;;;7.87;;
68947;SDS011;55996;49.546;7.400;2023-12-28T00:09:38;9.70;;;7.33;;
68947;SDS011;55996;49.546;7.400;2023-12-28T00:12:03;11.20;;;7.40;;
68947;SDS011;55996;49.546;7.400;2023-12-28T00:14:30;9.80;;;7.10;;
68947;SDS011;55996;49.546;7.400;2023-12-28T00:16:55;9.57;;;7.50;;
68947;SDS011;55996;49.546;7.400;2023-12-28T00:19:20;9.17;;;6.90;;
68947;SDS011;55996;49.546;7.400;2023-12-28T00:21:46;9.27;;;7.63;;
68947;SDS011;55996;49.546;7.400;2023-12-28T00:24:11;10.00;;;6.80;;
68947;SDS011;55996;49.546;7.400;2023-12-28T00:26:37;8.67;;;6.67;;
68947;SDS011;55996;49.546;7.400;2023-12-28T00:29:02;8.63;;;6.70;;
68947;SDS011;55996;49.546;7.400;2023-12-28T00:31:27;8.50;;;6.90;;
68947;SDS011;55996;49.546;7.400;2023-12-28T00:33:53;8.33;;;6.73;;
68947;SDS011;55996;49.546;7.400;2023-12-28T00:36:18;7.97;;;6.23;;
68947;SDS011;55996;49.546;7.400;2023-12-28T00:38:43;8.00;;;6.10;;
68947;SDS011;55996;49.546;7.400;2023-12-28T00:41:09;8.03;;;6.03;;
68947;SDS011;55996;49.546;7.400;2023-12-28T00:43:34;8.63;;;5.87;;
68947;SDS011;55996;49.546;7.400;2023-12-28T00:46:00;6.97;;;5.43;;
68947;SDS011;55996;49.546;7.400;2023-12-28T00:48:25;9.03;;;5.37;;
68947;SDS011;55996;49.546;7.400;2023-12-28T00:50:50;6.47;;;4.97;;
68947;SDS011;55996;49.546;7.400;2023-12-28T00:53:16;7.97;;;5.73;;
68947;SDS011;55996;49.546;7.400;2023-12-28T00:55:41;6.30;;;5.03;;
68947;SDS011;55996;49.546;7.400;2023-12-28T00:58:06;8.03;;;5.67;;
68947;SDS011;55996;49.546;7.400;2023-12-28T01:00:32;6.07;;;4.57;;
68947;SDS011;55996;49.546;7.400;2023-12-28T01:02:57;6.47;;;4.90;;
68947;SDS011;55996;49.546;7.400;2023-12-28T01:05:23;6.03;;;5.23;;
68947;SDS011;55996;49.546;7.400;2023-12-28T01:07:53;6.73;;;4.80;;
68947;SDS011;55996;49.546;7.400;2023-12-28T01:10:18;7.63;;;4.70;;
68947;SDS011;55996;49.546;7.400;2023-12-28T01:12:44;6.97;;;4.80;;
68947;SDS011;55996;49.546;7.400;2023-12-28T01:15:10;5.53;;;4.87;;
68947;SDS011;55996;49.546;7.400;2023-12-28T01:17:35;5.40;;;4.20;;
68947;SDS011;55996;49.546;7.400;2023-12-28T01:20:00;6.33;;;4.50;;
68947;SDS011;55996;49.546;7.400;2023-12-28T01:22:26;8.57;;;4.63;;
68947;SDS011;55996;49.546;7.400;2023-12-28T01:24:51;5.47;;;4.23;;
68947;SDS011;55996;49.546;7.400;2023-12-28T01:27:16;5.30;;;4.70;;
68947;SDS011;55996;49.546;7.400;2023-12-28T01:29:42;8.13;;;4.67;;
68947;SDS011;55996;49.546;7.400;2023-12-28T01:32:07;6.30;;;4.77;;
68947;SDS011;55996;49.546;7.400;2023-12-28T01:34:32;5.30;;;4.80;;
68947;SDS011;55996;49.546;7.400;2023-12-28T01:36:58;9.43;;;4.40;;
68947;SDS011;55996;49.546;7.400;2023-12-28T01:39:23;6.97;;;5.33;;
68947;SDS011;55996;49.546;7.400;2023-12-28T01:41:48;8.20;;;5.87;;
68947;SDS011;55996;49.546;7.400;2023-12-28T01:44:14;6.60;;;5.30;;
68947;SDS011;55996;49.546;7.400;2023-12-28T01:46:40;6.83;;;5.07;;
68947;SDS011;55996;49.546;7.400;2023-12-28T01:49:06;7.03;;;5.17;;
68947;SDS011;55996;49.546;7.400;2023-12-28T01:51:32;7.70;;;5.43;;
68947;SDS011;55996;49.546;7.400;2023-12-28T01:53:58;6.97;;;5.20;;
68947;SDS011;55996;49.546;7.400;2023-12-28T01:56:24;6.83;;;5.10;;
68947;SDS011;55996;49.546;7.400;2023-12-28T01:58:50;7.63;;;5.50;;
68947;SDS011;55996;49.546;7.400;2023-12-28T02:01:19;7.23;;;5.60;;
68947;SDS011;55996;49.546;7.400;2023-12-28T02:03:45;7.83;;;5.57;;
68947;SDS011;55996;49.546;7.400;2023-12-28T02:06:11;8.03;;;5.50;;
68947;SDS011;55996;49.546;7.400;2023-12-28T02:08:38;7.17;;;6.00;;
68947;SDS011;55996;49.546;7.400;2023-12-28T02:11:03;9.93;;;6.00;;
68947;SDS011;55996;49.546;7.400;2023-12-28T02:13:29;7.30;;;5.97;;
68947;SDS011;55996;49.546;7.400;2023-12-28T02:15:57;8.13;;;6.07;;
68947;SDS011;55996;49.546;7.400;2023-12-28T02:18:30;7.13;;;5.57;;
68947;SDS011;55996;49.546;7.400;2023-12-28T02:21:01;7.13;;;5.93;;
68947;SDS011;55996;49.546;7.400;2023-12-28T02:23:28;8.37;;;5.67;;
68947;SDS011;55996;49.546;7.400;2023-12-28T02:25:53;7.40;;;6.27;;
68947;SDS011;55996;49.546;7.400;2023-12-28T02:28:18;7.10;;;5.77;;
68947;SDS011;55996;49.546;7.400;2023-12-28T02:30:44;6.73;;;5.73;;
68947;SDS011;55996;49.546;7.400;2023-12-28T02:33:19;8.37;;;6.30;;
68947;SDS011;55996;49.546;7.400;2023-12-28T02:36:07;7.90;;;5.63;;
68947;SDS011;55996;49.546;7.400;2023-12-28T02:38:36;7.30;;;6.10;;
68947;SDS011;55996;49.546;7.400;2023-12-28T02:41:02;9.03;;;6.60;;
68947;SDS011;55996;49.546;7.400;2023-12-28T02:43:28;9.37;;;6.83;;
68947;SDS011;55996;49.546;7.400;2023-12-28T02:45:54;10.50;;;7.17;;
68947;SDS011;55996;49.546;7.400;2023-12-28T02:48:19;7.33;;;5.97;;
68947;SDS011;55996;49.546;7.400;2023-12-28T02:50:45;8.73;;;6.63;;
68947;SDS011;55996;49.546;7.400;2023-12-28T02:53:11;9.87;;;6.70;;
68947;SDS011;55996;49.546;7.400;2023-12-28T02:55:37;9.10;;;6.73;;
68947;SDS011;55996;49.546;7.400;2023-12-28T02:58:02;7.90;;;6.50;;
68947;SDS011;55996;49.546;7.400;2023-12-28T03:00:28;7.73;;;6.47;;
68947;SDS011;55996;49.546;7.400;2023-12-28T03:02:53;7.17;;;6.47;;
68947;SDS011;55996;49.546;7.400;2023-12-28T03:05:19;9.03;;;6.83;;
68947;SDS011;55996;49.546;7.400;2023-12-28T03:07:44;9.80;;;6.47;;
68947;SDS011;55996;49.546;7.400;2023-12-28T03:10:10;9.47;;;6.80;;
68947;SDS011;55996;49.546;7.400;2023-12-28T03:12:36;7.83;;;6.47;;
68947;SDS011;55996;49.546;7.400;2023-12-28T03:15:02;9.40;;;6.97;;
68947;SDS011;55996;49.546;7.400;2023-12-28T03:17:28;9.43;;;6.87;;
68947;SDS011;55996;49.546;7.400;2023-12-28T03:19:55;7.73;;;6.60;;
68947;SDS011;55996;49.546;7.400;2023-12-28T03:22:21;8.87;;;6.77;;
68947;SDS011;55996;49.546;7.400;2023-12-28T03:24:46;8.33;;;6.60;;
68947;SDS011;55996;49.546;7.400;2023-12-28T03:27:12;9.20;;;6.47;;
68947;SDS011;55996;49.546;7.400;2023-12-28T03:29:37;8.30;;;6.40;;
68947;SDS011;55996;49.546;7.400;2023-12-28T03:32:02;9.33;;;7.20;;
68947;SDS011;55996;49.546;7.400;2023-12-28T03:34:28;8.93;;;6.17;;
68947;SDS011;55996;49.546;7.400;2023-12-28T03:36:55;9.90;;;6.60;;
68947;SDS011;55996;49.546;7.400;2023-12-28T03:39:21;8.93;;;6.93;;
68947;SDS011;55996;49.546;7.400;2023-12-28T03:41:46;8.63;;;6.73;;
68947;SDS011;55996;49.546;7.400;2023-12-28T03:44:12;7.43;;;6.17;;
68947;SDS011;55996;49.546;7.400;2023-12-28T03:46:37;9.10;;;7.43;;
68947;SDS011;55996;49.546;7.400;2023-12-28T03:49:03;9.07;;;6.80;;
68947;SDS011;55996;49.546;7.400;2023-12-28T03:51:28;9.57;;;6.77;;
68947;SDS011;55996;49.546;7.400;2023-12-28T03:53:53;9.17;;;7.00;;
68947;SDS011;55996;49.546;7.400;2023-12-28T03:56:22;10.80;;;7.13;;
68947;SDS011;55996;49.546;7.400;2023-12-28T03:58:51;10.03;;;7.40;;
68947;SDS011;55996;49.546;7.400;2023-12-28T04:01:18;8.50;;;6.83;;
68947;SDS011;55996;49.546;7.400;2023-12-28T04:03:44;8.17;;;6.97;;
68947;SDS011;55996;49.546;7.400;2023-12-28T04:06:10;8.17;;;6.43;;
68947;SDS011;55996;49.546;7.400;2023-12-28T04:08:35;8.00;;;6.40;;
68947;SDS011;55996;49.546;7.400;2023-12-28T04:11:00;8.73;;;6.50;;
68947;SDS011;55996;49.546;7.400;2023-12-28T04:13:26;7.40;;;6.00;;
68947;SDS011;55996;49.546;7.400;2023-12-28T04:15:51;7.00;;;6.17;;
68947;SDS011;55996;49.546;7.400;2023-12-28T04:18:16;6.80;;;6.10;;
68947;SDS011;55996;49.546;7.400;2023-12-28T04:20:42;8.37;;;5.83;;
68947;SDS011;55996;49.546;7.400;2023-12-28T04:23:09;6.77;;;5.70;;
68947;SDS011;55996;49.546;7.400;2023-12-28T04:25:35;6.73;;;6.03;;
68947;SDS011;55996;49.546;7.400;2023-12-28T04:28:00;7.77;;;6.23;;
68947;SDS011;55996;49.546;7.400;2023-12-28T04:30:25;6.40;;;5.33;;
68947;SDS011;55996;49.546;7.400;2023-12-28T04:32:52;5.60;;;5.07;;
68947;SDS011;55996;49.546;7.400;2023-12-28T04:35:17;5.90;;;4.90;;
68947;SDS011;55996;49.546;7.400;2023-12-28T04:37:43;6.03;;;5.20;;
68947;SDS011;55996;49.546;7.400;2023-12-28T04:40:08;8.43;;;5.37;;
68947;SDS011;55996;49.546;7.400;2023-12-28T04:42:34;6.47;;;4.90;;
68947;SDS011;55996;49.546;7.400;2023-12-28T04:44:59;5.20;;;4.60;;
68947;SDS011;55996;49.546;7.400;2023-12-28T04:47:25;5.30;;;4.47;;
68947;SDS011;55996;49.546;7.400;2023-12-28T04:49:50;5.80;;;4.30;;
68947;SDS011;55996;49.546;7.400;2023-12-28T04:52:15;5.67;;;4.43;;
68947;SDS011;55996;49.546;7.400;2023-12-28T04:54:41;4.83;;;3.97;;
68947;SDS011;55996;49.546;7.400;2023-12-28T04:57:06;5.37;;;4.20;;
68947;SDS011;55996;49.546;7.400;2023-12-28T04:59:37;5.00;;;4.50;;
68947;SDS011;55996;49.546;7.400;2023-12-28T05:02:06;8.50;;;4.37;;
68947;SDS011;55996;49.546;7.400;2023-12-28T05:04:32;7.63;;;5.03;;
68947;SDS011;55996;49.546;7.400;2023-12-28T05:06:57;5.77;;;5.17;;
68947;SDS011;55996;49.546;7.400;2023-12-28T05:09:23;9.33;;;5.17;;
68947;SDS011;55996;49.546;7.400;2023-12-28T05:11:48;9.77;;;6.20;;
68947;SDS011;55996;49.546;7.400;2023-12-28T05:14:13;7.33;;;6.10;;
68947;SDS011;55996;49.546;7.400;2023-12-28T05:16:39;8.03;;;6.77;;
68947;SDS011;55996;49.546;7.400;2023-12-28T05:19:04;6.67;;;6.07;;
68947;SDS011;55996;49.546;7.400;2023-12-28T05:21:29;7.17;;;6.03;;
68947;SDS011;55996;49.546;7.400;2023-12-28T05:23:55;9.00;;;6.50;;
68947;SDS011;55996;49.546;7.400;2023-12-28T05:26:20;7.00;;;6.30;;
68947;SDS011;55996;49.546;7.400;2023-12-28T05:28:46;6.83;;;6.23;;
68947;SDS011;55996;49.546;7.400;2023-12-28T05:31:11;9.20;;;6.77;;
68947;SDS011;55996;49.546;7.400;2023-12-28T05:33:38;8.83;;;6.67;;
68947;SDS011;55996;49.546;7.400;2023-12-28T05:36:04;6.43;;;5.80;;
68947;SDS011;55996;49.546;7.400;2023-12-28T05:38:30;8.77;;;6.83;;
68947;SDS011;55996;49.546;7.400;2023-12-28T05:40:55;6.67;;;6.03;;
68947;SDS011;55996;49.546;7.400;2023-12-28T05:43:20;7.37;;;6.50;;
68947;SDS011;55996;49.546;7.400;2023-12-28T05:45:46;7.90;;;6.37;;
68947;SDS011;55996;49.546;7.400;2023-12-28T05:48:11;6.80;;;6.10;;
68947;SDS011;55996;49.546;7.400;2023-12-28T05:50:36;6.80;;;6.13;;
68947;SDS011;55996;49.546;7.400;2023-12-28T05:53:02;6.87;;;6.10;;
68947;SDS011;55996;49.546;7.400;2023-12-28T05:55:27;8.33;;;6.47;;
68947;SDS011;55996;49.546;7.400;2023-12-28T05:57:53;7.40;;;6.20;;
68947;SDS011;55996;49.546;7.400;2023-12-28T06:00:18;9.40;;;6.67;;
68947;SDS011;55996;49.546;7.400;2023-12-28T06:02:44;7.90;;;6.63;;
68947;SDS011;55996;49.546;7.400;2023-12-28T06:05:11;6.70;;;6.07;;
68947;SDS011;55996;49.546;7.400;2023-12-28T06:07:36;9.60;;;6.53;;
68947;SDS011;55996;49.546;7.400;2023-12-28T06:10:02;9.83;;;7.03;;
68947;SDS011;55996;49.546;7.400;2023-12-28T06:12:27;9.23;;;6.37;;
68947;SDS011;55996;49.546;7.400;2023-12-28T06:14:53;9.33;;;7.00;;
68947;SDS011;55996;49.546;7.400;2023-12-28T06:17:18;8.93;;;6.73;;
68947;SDS011;55996;49.546;7.400;2023-12-28T06:19:44;6.90;;;6.20;;
68947;SDS011;55996;49.546;7.400;2023-12-28T06:22:09;7.93;;;6.80;;
68947;SDS011;55996;49.546;7.400;2023-12-28T06:24:38;9.13;;;6.73;;
68947;SDS011;55996;49.546;7.400;2023-12-28T06:27:05;9.60;;;7.40;;
68947;SDS011;55996;49.546;7.400;2023-12-28T06:29:30;9.23;;;7.57;;
68947;SDS011;55996;49.546;7.400;2023-12-28T06:31:55;9.67;;;7.60;;
68947;SDS011;55996;49.546;7.400;2023-12-28T06:34:21;9.40;;;7.53;;
68947;SDS011;55996;49.546;7.400;2023-12-28T06:36:46;8.47;;;7.30;;
68947;SDS011;55996;49.546;7.400;2023-12-28T06:39:12;10.97;;;7.73;;
68947;SDS011;55996;49.546;7.400;2023-12-28T06:41:40;8.87;;;7.43;;
68947;SDS011;55996;49.546;7.400;2023-12-28T06:44:05;11.23;;;7.83;;
68947;SDS011;55996;49.546;7.400;2023-12-28T06:46:31;10.33;;;8.20;;
68947;SDS011;55996;49.546;7.400;2023-12-28T06:48:56;11.33;;;8.40;;
68947;SDS011;55996;49.546;7.400;2023-12-28T06:51:23;12.70;;;8.27;;
68947;SDS011;55996;49.546;7.400;2023-12-28T06:53:50;8.30;;;7.47;;
68947;SDS011;55996;49.546;7.400;2023-12-28T06:56:15;9.70;;;7.70;;
68947;SDS011;55996;49.546;7.400;2023-12-28T06:58:41;9.50;;;7.17;;
68947;SDS011;55996;49.546;7.400;2023-12-28T07:01:07;11.33;;;8.23;;
68947;SDS011;55996;49.546;7.400;2023-12-28T07:03:32;10.97;;;6.87;;
68947;SDS011;55996;49.546;7.400;2023-12-28T07:05:58;8.57;;;6.43;;
68947;SDS011;55996;49.546;7.400;2023-12-28T07:08:24;8.40;;;5.97;;
68947;SDS011;55996;49.546;7.400;2023-12-28T07:10:50;9.03;;;6.27;;
68947;SDS011;55996;49.546;7.400;2023-12-28T07:13:15;11.40;;;6.27;;
68947;SDS011;55996;49.546;7.400;2023-12-28T07:15:43;9.67;;;6.30;;
68947;SDS011;55996;49.546;7.400;2023-12-28T07:18:08;10.20;;;5.67;;
68947;SDS011;55996;49.546;7.400;2023-12-28T07:20:34;10.13;;;6.20;;
68947;SDS011;55996;49.546;7.400;2023-12-28T07:22:59;7.40;;;5.20;;
68947;SDS011;55996;49.546;7.400;2023-12-28T07:25:24;8.07;;;5.43;;
68947;SDS011;55996;49.546;7.400;2023-12-28T07:27:50;7.43;;;5.30;;
68947;SDS011;55996;49.546;7.400;2023-12-28T07:30:15;7.77;;;5.50;;
68947;SDS011;55996;49.546;7.400;2023-12-28T07:32:42;6.57;;;5.87;;
68947;SDS011;55996;49.546;7.400;2023-12-28T07:35:08;6.77;;;5.00;;
68947;SDS011;55996;49.546;7.400;2023-12-28T07:37:34;6.97;;;5.20;;
68947;SDS011;55996;49.546;7.400;2023-12-28T07:40:00;8.53;;;5.43;;
68947;SDS011;55996;49.546;7.400;2023-12-28T07:42:25;5.80;;;5.20;;
68947;SDS011;55996;49.546;7.400;2023-12-28T07:44:51;9.27;;;6.77;;
68947;SDS011;55996;49.546;7.400;2023-12-28T07:47:16;8.57;;;5.90;;
68947;SDS011;55996;49.546;7.400;2023-12-28T07:49:42;9.53;;;5.97;;
68947;SDS011;55996;49.546;7.400;2023-12-28T07:52:07;8.73;;;6.47;;
68947;SDS011;55996;49.546;7.400;2023-12-28T07:54:33;7.57;;;6.20;;
68947;SDS011;55996;49.546;7.400;2023-12-28T07:56:59;8.20;;;6.20;;
68947;SDS011;55996;49.546;7.400;2023-12-28T07:59:24;7.17;;;6.33;;
68947;SDS011;55996;49.546;7.400;2023-12-28T08:01:50;8.37;;;6.10;;
68947;SDS011;55996;49.546;7.400;2023-12-28T08:04:15;9.07;;;6.17;;
68947;SDS011;55996;49.546;7.400;2023-12-28T08:06:40;8.10;;;5.80;;
68947;SDS011;55996;49.546;7.400;2023-12-28T08:09:06;7.00;;;5.90;;
68947;SDS011;55996;49.546;7.400;2023-12-28T08:11:32;8.27;;;5.87;;
68947;SDS011;55996;49.546;7.400;2023-12-28T08:13:57;7.43;;;5.30;;
68947;SDS011;55996;49.546;7.400;2023-12-28T08:16:22;8.00;;;5.80;;
68947;SDS011;55996;49.546;7.400;2023-12-28T08:18:48;5.90;;;5.13;;
68947;SDS011;55996;49.546;7.400;2023-12-28T08:21:13;8.97;;;5.90;;
68947;SDS011;55996;49.546;7.400;2023-12-28T08:23:39;9.17;;;5.23;;
68947;SDS011;55996;49.546;7.400;2023-12-28T08:26:10;8.93;;;5.10;;
68947;SDS011;55996;49.546;7.400;2023-12-28T08:28:39;5.33;;;4.80;;
68947;SDS011;55996;49.546;7.400;2023-12-28T08:31:07;7.00;;;5.27;;
68947;SDS011;55996;49.546;7.400;2023-12-28T08:33:35;5.83;;;4.87;;
68947;SDS011;55996;49.546;7.400;2023-12-28T08:36:04;8.40;;;5.37;;
68947;SDS011;55996;49.546;7.400;2023-12-28T08:38:30;6.57;;;5.30;;
68947;SDS011;55996;49.546;7.400;2023-12-28T08:40:56;8.77;;;5.10;;
68947;SDS011;55996;49.546;7.400;2023-12-28T08:43:21;6.73;;;5.13;;
68947;SDS011;55996;49.546;7.400;2023-12-28T08:45:47;8.70;;;5.70;;
68947;SDS011;55996;49.546;7.400;2023-12-28T08:48:12;6.60;;;5.43;;
68947;SDS011;55996;49.546;7.400;2023-12-28T08:50:37;6.80;;;4.87;;
68947;SDS011;55996;49.546;7.400;2023-12-28T08:53:03;7.83;;;5.43;;
68947;SDS011;55996;49.546;7.400;2023-12-28T08:55:29;8.33;;;5.60;;
68947;SDS011;55996;49.546;7.400;2023-12-28T08:57:54;9.30;;;5.93;;
68947;SDS011;55996;49.546;7.400;2023-12-28T09:00:19;6.87;;;5.43;;
68947;SDS011;55996;49.546;7.400;2023-12-28T09:02:45;6.67;;;5.60;;
68947;SDS011;55996;49.546;7.400;2023-12-28T09:05:10;6.77;;;5.67;;
68947;SDS011;55996;49.546;7.400;2023-12-28T09:07:35;9.70;;;5.30;;
68947;SDS011;55996;49.546;7.400;2023-12-28T09:10:07;7.83;;;5.67;;
68947;SDS011;55996;49.546;7.400;2023-12-28T09:12:34;6.90;;;4.57;;
68947;SDS011;55996;49.546;7.400;2023-12-28T09:14:59;6.03;;;5.43;;
68947;SDS011;55996;49.546;7.400;2023-12-28T09:17:24;7.40;;;4.93;;
68947;SDS011;55996;49.546;7.400;2023-12-28T09:19:50;6.40;;;5.13;;
68947;SDS011;55996;49.546;7.400;2023-12-28T09:22:15;5.63;;;4.80;;
68947;SDS011;55996;49.546;7.400;2023-12-28T09:24:40;6.17;;;5.37;;
68947;SDS011;55996;49.546;7.400;2023-12-28T09:27:06;7.07;;;4.53;;
68947;SDS011;55996;49.546;7.400;2023-12-28T09:29:31;7.53;;;4.67;;
68947;SDS011;55996;49.546;7.400;2023-12-28T09:31:57;8.00;;;4.50;;
68947;SDS011;55996;49.546;7.400;2023-12-28T09:34:22;7.03;;;4.27;;
68947;SDS011;55996;49.546;7.400;2023-12-28T09:36:48;5.77;;;4.40;;
68947;SDS011;55996;49.546;7.400;2023-12-28T09:39:13;6.03;;;3.93;;
68947;SDS011;55996;49.546;7.400;2023-12-28T09:41:39;5.53;;;4.17;;
68947;SDS011;55996;49.546;7.400;2023-12-28T09:46:37;6.17;;;3.63;;
68947;SDS011;55996;49.546;7.400;2023-12-28T09:49:06;6.70;;;4.07;;
68947;SDS011;55996;49.546;7.400;2023-12-28T09:51:32;6.37;;;3.67;;
68947;SDS011;55996;49.546;7.400;2023-12-28T09:53:57;7.37;;;3.90;;
68947;SDS011;55996;49.546;7.400;2023-12-28T09:56:23;5.30;;;3.90;;
68947;SDS011;55996;49.546;7.400;2023-12-28T09:58:50;6.20;;;3.70;;
68947;SDS011;55996;49.546;7.400;2023-12-28T10:01:19;6.30;;;4.03;;
68947;SDS011;55996;49.546;7.400;2023-12-28T10:03:45;8.30;;;4.20;;
68947;SDS011;55996;49.546;7.400;2023-12-28T10:06:10;5.43;;;3.67;;
68947;SDS011;55996;49.546;7.400;2023-12-28T10:08:35;3.97;;;3.40;;
68947;SDS011;55996;49.546;7.400;2023-12-28T10:11:02;7.87;;;4.13;;
68947;SDS011;55996;49.546;7.400;2023-12-28T10:13:28;5.70;;;3.20;;
68947;SDS011;55996;49.546;7.400;2023-12-28T10:15:56;5.97;;;3.30;;
68947;SDS011;55996;49.546;7.400;2023-12-28T10:18:22;8.80;;;3.60;;
68947;SDS011;55996;49.546;7.400;2023-12-28T10:20:52;6.63;;;3.57;;
68947;SDS011;55996;49.546;7.400;2023-12-28T10:23:18;4.43;;;3.57;;
68947;SDS011;55996;49.546;7.400;2023-12-28T10:25:44;6.83;;;4.10;;
68947;SDS011;55996;49.546;7.400;2023-12-28T10:28:20;5.00;;;4.17;;
68947;SDS011;55996;49.546;7.400;2023-12-28T10:30:46;5.47;;;3.63;;
68947;SDS011;55996;49.546;7.400;2023-12-28T10:33:12;8.80;;;4.23;;
68947;SDS011;55996;49.546;7.400;2023-12-28T10:35:42;8.10;;;3.97;;
68947;SDS011;55996;49.546;7.400;2023-12-28T10:38:09;6.13;;;3.50;;
68947;SDS011;55996;49.546;7.400;2023-12-28T10:40:38;8.70;;;3.70;;
68947;SDS011;55996;49.546;7.400;2023-12-28T10:43:06;9.23;;;4.37;;
68947;SDS011;55996;49.546;7.400;2023-12-28T10:45:37;7.60;;;4.23;;
68947;SDS011;55996;49.546;7.400;2023-12-28T10:48:08;7.27;;;4.40;;
68947;SDS011;55996;49.546;7.400;2023-12-28T10:50:38;5.93;;;4.23;;
68947;SDS011;55996;49.546;7.400;2023-12-28T10:53:38;6.53;;;4.30;;
68947;SDS011;55996;49.546;7.400;2023-12-28T10:56:31;5.33;;;4.57;;
68947;SDS011;55996;49.546;7.400;2023-12-28T11:01:39;6.80;;;4.73;;
68947;SDS011;55996;49.546;7.400;2023-12-28T11:06:33;5.20;;;4.10;;
68947;SDS011;55996;49.546;7.400;2023-12-28T11:09:00;6.23;;;4.40;;
68947;SDS011;55996;49.546;7.400;2023-12-28T11:11:26;10.43;;;5.10;;
68947;SDS011;55996;49.546;7.400;2023-12-28T11:13:54;10.47;;;5.07;;
68947;SDS011;55996;49.546;7.400;2023-12-28T11:16:21;7.83;;;4.77;;
68947;SDS011;55996;49.546;7.400;2023-12-28T11:18:47;6.03;;;4.63;;
68947;SDS011;55996;49.546;7.400;2023-12-28T11:21:13;7.80;;;4.30;;
68947;SDS011;55996;49.546;7.400;2023-12-28T11:23:40;5.23;;;4.20;;
68947;SDS011;55996;49.546;7.400;2023-12-28T11:26:15;7.93;;;4.37;;
68947;SDS011;55996;49.546;7.400;2023-12-28T11:28:46;5.10;;;4.10;;
68947;SDS011;55996;49.546;7.400;2023-12-28T11:31:18;5.80;;;4.07;;
68947;SDS011;55996;49.546;7.400;2023-12-28T11:33:47;7.40;;;3.80;;
68947;SDS011;55996;49.546;7.400;2023-12-28T11:36:21;4.10;;;3.50;;
68947;SDS011;55996;49.546;7.400;2023-12-28T11:38:50;7.07;;;3.90;;
68947;SDS011;55996;49.546;7.400;2023-12-28T11:41:19;5.60;;;3.80;;
68947;SDS011;55996;49.546;7.400;2023-12-28T11:43:51;4.27;;;3.43;;
68947;SDS011;55996;49.546;7.400;2023-12-28T11:46:18;3.43;;;3.13;;
68947;SDS011;55996;49.546;7.400;2023-12-28T11:48:44;3.50;;;3.00;;
68947;SDS011;55996;49.546;7.400;2023-12-28T11:51:10;3.60;;;3.30;;
68947;SDS011;55996;49.546;7.400;2023-12-28T11:53:35;4.90;;;2.90;;
68947;SDS011;55996;49.546;7.400;2023-12-28T11:56:01;3.67;;;3.20;;
68947;SDS011;55996;49.546;7.400;2023-12-28T11:58:28;3.47;;;3.17;;
68947;SDS011;55996;49.546;7.400;2023-12-28T12:00:53;3.00;;;2.70;;
68947;SDS011;55996;49.546;7.400;2023-12-28T12:03:19;4.00;;;3.37;;
68947;SDS011;55996;49.546;7.400;2023-12-28T12:05:44;4.00;;;3.00;;
68947;SDS011;55996;49.546;7.400;2023-12-28T12:08:10;3.83;;;3.37;;
68947;SDS011;55996;49.546;7.400;2023-12-28T12:10:38;4.07;;;3.20;;
68947;SDS011;55996;49.546;7.400;2023-12-28T12:13:04;4.03;;;3.57;;
68947;SDS011;55996;49.546;7.400;2023-12-28T12:15:30;3.53;;;3.23;;
68947;SDS011;55996;49.546;7.400;2023-12-28T12:17:58;5.03;;;3.67;;
68947;SDS011;55996;49.546;7.400;2023-12-28T12:20:23;3.13;;;2.83;;
68947;SDS011;55996;49.546;7.400;2023-12-28T12:22:49;4.13;;;3.13;;
68947;SDS011;55996;49.546;7.400;2023-12-28T12:25:14;3.53;;;3.10;;
68947;SDS011;55996;49.546;7.400;2023-12-28T12:27:41;3.27;;;2.97;;
68947;SDS011;55996;49.546;7.400;2023-12-28T12:30:07;3.60;;;3.30;;
68947;SDS011;55996;49.546;7.400;2023-12-28T12:32:33;4.13;;;3.40;;
68947;SDS011;55996;49.546;7.400;2023-12-28T12:35:02;3.10;;;2.90;;
68947;SDS011;55996;49.546;7.400;2023-12-28T12:37:28;3.93;;;3.17;;
68947;SDS011;55996;49.546;7.400;2023-12-28T12:39:53;3.90;;;3.30;;
68947;SDS011;55996;49.546;7.400;2023-12-28T12:42:19;3.83;;;3.50;;
68947;SDS011;55996;49.546;7.400;2023-12-28T12:44:45;4.70;;;3.67;;
68947;SDS011;55996;49.546;7.400;2023-12-28T12:47:10;3.37;;;3.03;;
68947;SDS011;55996;49.546;7.400;2023-12-28T12:49:38;3.70;;;3.40;;
68947;SDS011;55996;49.546;7.400;2023-12-28T12:52:03;4.10;;;3.13;;
68947;SDS011;55996;49.546;7.400;2023-12-28T12:54:29;3.37;;;2.80;;
68947;SDS011;55996;49.546;7.400;2023-12-28T12:56:54;6.80;;;3.50;;
68947;SDS011;55996;49.546;7.400;2023-12-28T12:59:19;3.73;;;3.30;;
68947;SDS011;55996;49.546;7.400;2023-12-28T13:01:45;3.63;;;3.23;;
68947;SDS011;55996;49.546;7.400;2023-12-28T13:04:13;6.30;;;3.90;;
68947;SDS011;55996;49.546;7.400;2023-12-28T13:06:40;4.00;;;3.60;;
68947;SDS011;55996;49.546;7.400;2023-12-28T13:09:06;4.77;;;3.97;;
68947;SDS011;55996;49.546;7.400;2023-12-28T13:11:32;4.20;;;3.80;;
68947;SDS011;55996;49.546;7.400;2023-12-28T13:13:58;6.17;;;3.37;;
68947;SDS011;55996;49.546;7.400;2023-12-28T13:16:24;7.03;;;3.70;;
68947;SDS011;55996;49.546;7.400;2023-12-28T13:18:50;8.50;;;4.17;;
68947;SDS011;55996;49.546;7.400;2023-12-28T13:21:15;5.27;;;3.47;;
68947;SDS011;55996;49.546;7.400;2023-12-28T13:23:40;7.27;;;4.10;;
68947;SDS011;55996;49.546;7.400;2023-12-28T13:26:06;5.27;;;3.70;;
68947;SDS011;55996;49.546;7.400;2023-12-28T13:28:32;4.57;;;4.13;;
68947;SDS011;55996;49.546;7.400;2023-12-28T13:30:57;4.40;;;4.00;;
68947;SDS011;55996;49.546;7.400;2023-12-28T13:33:23;5.30;;;4.03;;
68947;SDS011;55996;49.546;7.400;2023-12-28T13:35:49;5.80;;;3.70;;
68947;SDS011;55996;49.546;7.400;2023-12-28T13:38:15;7.53;;;4.33;;
68947;SDS011;55996;49.546;7.400;2023-12-28T13:40:40;5.90;;;4.70;;
68947;SDS011;55996;49.546;7.400;2023-12-28T13:43:06;6.73;;;4.50;;
68947;SDS011;55996;49.546;7.400;2023-12-28T13:45:31;8.57;;;5.37;;
68947;SDS011;55996;49.546;7.400;2023-12-28T13:47:56;9.70;;;5.47;;
68947;SDS011;55996;49.546;7.400;2023-12-28T13:50:22;5.20;;;4.70;;
68947;SDS011;55996;49.546;7.400;2023-12-28T13:52:47;8.33;;;5.53;;
68947;SDS011;55996;49.546;7.400;2023-12-28T13:55:13;6.77;;;5.37;;
68947;SDS011;55996;49.546;7.400;2023-12-28T13:57:38;5.70;;;5.10;;
68947;SDS011;55996;49.546;7.400;2023-12-28T14:00:04;6.60;;;4.70;;
68947;SDS011;55996;49.546;7.400;2023-12-28T14:02:30;7.43;;;4.50;;
68947;SDS011;55996;49.546;7.400;2023-12-28T14:04:56;7.17;;;4.70;;
68947;SDS011;55996;49.546;7.400;2023-12-28T14:07:22;6.93;;;5.00;;
68947;SDS011;55996;49.546;7.400;2023-12-28T14:09:48;6.73;;;4.57;;
68947;SDS011;55996;49.546;7.400;2023-12-28T14:12:13;6.53;;;5.10;;
68947;SDS011;55996;49.546;7.400;2023-12-28T14:14:39;7.67;;;5.20;;
68947;SDS011;55996;49.546;7.400;2023-12-28T14:17:04;5.20;;;4.57;;
68947;SDS011;55996;49.546;7.400;2023-12-28T14:19:30;5.33;;;4.53;;
68947;SDS011;55996;49.546;7.400;2023-12-28T14:21:56;5.90;;;4.70;;
68947;SDS011;55996;49.546;7.400;2023-12-28T14:24:22;5.70;;;4.93;;
68947;SDS011;55996;49.546;7.400;2023-12-28T14:26:47;7.00;;;4.70;;
68947;SDS011;55996;49.546;7.400;2023-12-28T14:29:19;6.50;;;4.87;;
68947;SDS011;55996;49.546;7.400;2023-12-28T14:31:45;7.07;;;5.30;;
68947;SDS011;55996;49.546;7.400;2023-12-28T14:34:12;6.30;;;5.23;;
68947;SDS011;55996;49.546;7.400;2023-12-28T14:36:38;8.10;;;5.13;;
68947;SDS011;55996;49.546;7.400;2023-12-28T14:39:05;6.27;;;5.27;;
68947;SDS011;55996;49.546;7.400;2023-12-28T14:41:36;6.27;;;5.20;;
68947;SDS011;55996;49.546;7.400;2023-12-28T14:44:02;5.13;;;4.63;;
68947;SDS011;55996;49.546;7.400;2023-12-28T14:46:28;5.50;;;4.83;;
68947;SDS011;55996;49.546;7.400;2023-12-28T14:48:55;6.07;;;5.47;;
68947;SDS011;55996;49.546;7.400;2023-12-28T14:51:20;5.80;;;5.20;;